Time;durP1;ratioP1;P1;durP2;ratioP2;P2;SDS_P1;SDS_P2;PMS_P1;PMS_P2;Temp;Humidity;BMP_temperature;BMP_pressure;BME280_temperature;BME280_humidity;BME280_pressure;Samples;Min_cycle;Max_cycle;Signal;HPM_P1;HPM_P2
2022/03/21 00:00:49;;;;;;;38.67;31.23;;;;;;;;;;4947381;29;20438;-80
2022/03/21 00:03:16;;;;;;;37.55;30.40;;;;;;;;;;4935931;29;20047;-79
2022/03/21 00:05:43;;;;;;;39.42;31.63;;;;;;;;;;4930621;29;20054;-79
2022/03/21 00:08:11;;;;;;;38.45;30.33;;;;;;;;;;4946256;28;20036;-80
2022/03/21 00:10:38;;;;;;;39.95;30.13;;;;;;;;;;4950936;28;20079;-80
2022/03/21 00:13:04;;;;;;;41.90;31.10;;;;;;;;;;4942696;29;20051;-79
2022/03/21 00:15:32;;;;;;;38.67;30.17;;;;;;;;;;4940040;29;20106;-79
2022/03/21 00:17:58;;;;;;;36.05;28.15;;;;;;;;;;4927590;29;20094;-78
2022/03/21 00:20:25;;;;;;;36.15;29.55;;;;;;;;;;4933291;29;20502;-79
2022/03/21 00:22:52;;;;;;;37.80;28.05;;;;;;;;;;4943571;28;20136;-78
2022/03/21 00:25:19;;;;;;;36.63;29.25;;;;;;;;;;4952091;29;20039;-79
2022/03/21 00:27:45;;;;;;;37.85;28.45;;;;;;;;;;4951254;29;20050;-79
2022/03/21 00:30:11;;;;;;;35.47;28.63;;;;;;;;;;4946554;29;20082;-79
2022/03/21 00:32:39;;;;;;;31.73;26.38;;;;;;;;;;4951837;29;20046;-78
2022/03/21 00:35:09;;;;;;;30.50;23.88;;;;;;;;;;4951216;29;20043;-78
2022/03/21 00:37:37;;;;;;;34.78;25.42;;;;;;;;;;4952397;28;20134;-78
2022/03/21 00:40:05;;;;;;;29.92;23.15;;;;;;;;;;4956468;28;20046;-78
2022/03/21 00:42:34;;;;;;;33.42;23.13;;;;;;;;;;4965318;28;20105;-78
2022/03/21 00:45:00;;;;;;;31.70;22.90;;;;;;;;;;4951237;29;20090;-78
2022/03/21 00:47:26;;;;;;;27.88;21.15;;;;;;;;;;4953006;28;20039;-78
2022/03/21 00:49:52;;;;;;;31.45;22.08;;;;;;;;;;4939226;29;20079;-78
2022/03/21 00:52:19;;;;;;;26.08;20.45;;;;;;;;;;4939051;29;20050;-78
2022/03/21 00:54:45;;;;;;;26.80;21.75;;;;;;;;;;4970132;28;20054;-78
2022/03/21 00:57:11;;;;;;;27.70;21.38;;;;;;;;;;4955286;29;20130;-78
2022/03/21 00:59:39;;;;;;;24.88;19.13;;;;;;;;;;4955243;29;20078;-78
2022/03/21 01:02:06;;;;;;;27.00;19.90;;;;;;;;;;4955058;29;20054;-78
2022/03/21 01:04:32;;;;;;;26.55;19.17;;;;;;;;;;4955188;29;20047;-79
2022/03/21 01:06:58;;;;;;;28.13;20.45;;;;;;;;;;4955031;29;20051;-78
2022/03/21 01:09:24;;;;;;;26.95;19.80;;;;;;;;;;4954599;28;20051;-79
2022/03/21 01:11:50;;;;;;;25.85;19.17;;;;;;;;;;4954029;29;20082;-78
2022/03/21 01:14:16;;;;;;;25.63;20.05;;;;;;;;;;4946859;29;20046;-78
2022/03/21 01:16:42;;;;;;;25.70;19.45;;;;;;;;;;4954961;29;20051;-78
2022/03/21 01:19:08;;;;;;;25.55;19.35;;;;;;;;;;4956171;28;20071;-78
2022/03/21 01:21:34;;;;;;;24.52;18.75;;;;;;;;;;4948625;28;20051;-79
2022/03/21 01:24:00;;;;;;;27.60;19.60;;;;;;;;;;4950424;29;20059;-78
2022/03/21 01:26:26;;;;;;;24.48;18.92;;;;;;;;;;4954540;29;20078;-79
2022/03/21 01:28:52;;;;;;;24.60;17.48;;;;;;;;;;4954698;29;20050;-79
2022/03/21 01:31:18;;;;;;;22.10;18.13;;;;;;;;;;4950422;28;20047;-79
2022/03/21 01:33:44;;;;;;;25.67;18.08;;;;;;;;;;4950717;28;20382;-78
2022/03/21 01:36:10;;;;;;;23.58;17.92;;;;;;;;;;4959757;23;20063;-79
2022/03/21 01:38:36;;;;;;;22.58;17.90;;;;;;;;;;4934743;29;20147;-79
2022/03/21 01:41:02;;;;;;;22.75;16.67;;;;;;;;;;4935049;29;20051;-79
2022/03/21 01:43:28;;;;;;;23.27;17.27;;;;;;;;;;4934738;29;20062;-79
2022/03/21 01:45:54;;;;;;;21.67;17.33;;;;;;;;;;4919762;29;20044;-79
2022/03/21 01:48:20;;;;;;;22.38;17.27;;;;;;;;;;4935892;29;20040;-79
2022/03/21 01:50:46;;;;;;;23.92;17.55;;;;;;;;;;4926368;29;20044;-79
2022/03/21 01:55:58;;;;;;;23.35;17.10;;;;;;;;;;4935076;29;20058;-81
2022/03/21 01:58:25;;;;;;;22.10;16.40;;;;;;;;;;4934109;29;20036;-79
2022/03/21 02:00:51;;;;;;;22.60;16.23;;;;;;;;;;4931867;29;20056;-79
2022/03/21 02:03:19;;;;;;;23.10;17.65;;;;;;;;;;4933662;29;20072;-79
2022/03/21 02:05:47;;;;;;;23.20;17.10;;;;;;;;;;4934139;29;20061;-79
2022/03/21 02:08:13;;;;;;;24.08;16.63;;;;;;;;;;4933593;29;20109;-79
2022/03/21 02:10:42;;;;;;;20.10;16.30;;;;;;;;;;4933443;29;20121;-79
2022/03/21 02:13:08;;;;;;;23.95;16.40;;;;;;;;;;4913093;29;20039;-79
2022/03/21 02:15:35;;;;;;;19.50;15.73;;;;;;;;;;4917917;29;20040;-80
2022/03/21 02:18:02;;;;;;;20.85;15.55;;;;;;;;;;4917838;29;20050;-79
2022/03/21 02:20:29;;;;;;;21.02;16.55;;;;;;;;;;4934792;29;20044;-80
2022/03/21 02:23:11;;;;;;;19.92;16.13;;;;;;;;;;4919151;29;20054;-80
2022/03/21 02:25:43;;;;;;;23.35;15.93;;;;;;;;;;4912211;29;20044;-80
2022/03/21 02:28:10;;;;;;;18.70;15.20;;;;;;;;;;4913954;29;20047;-80
2022/03/21 02:30:41;;;;;;;22.42;16.25;;;;;;;;;;4934648;29;20095;-80
2022/03/21 02:33:07;;;;;;;20.00;15.98;;;;;;;;;;4933989;29;20043;-80
2022/03/21 02:35:33;;;;;;;22.27;16.02;;;;;;;;;;4936443;29;20083;-81
2022/03/21 02:38:00;;;;;;;19.88;14.85;;;;;;;;;;4939039;28;20266;-80
2022/03/21 02:40:26;;;;;;;21.02;16.95;;;;;;;;;;4941311;29;20098;-79
2022/03/21 02:42:52;;;;;;;21.00;16.00;;;;;;;;;;4922101;29;20031;-80
2022/03/21 02:45:19;;;;;;;22.20;16.63;;;;;;;;;;4926096;29;20035;-80
2022/03/21 02:47:45;;;;;;;24.08;18.58;;;;;;;;;;4937610;29;20516;-80
2022/03/21 02:50:17;;;;;;;26.85;17.52;;;;;;;;;;4937796;29;20047;-80
2022/03/21 02:52:46;;;;;;;27.92;18.55;;;;;;;;;;4922454;28;20047;-80
2022/03/21 02:55:12;;;;;;;26.20;19.13;;;;;;;;;;4936995;29;20556;-80
2022/03/21 02:57:38;;;;;;;25.42;19.52;;;;;;;;;;4921686;29;20043;-80
2022/03/21 03:00:04;;;;;;;26.35;18.52;;;;;;;;;;4942240;29;20039;-80
2022/03/21 03:02:30;;;;;;;29.40;19.17;;;;;;;;;;4937265;29;20070;-80
2022/03/21 03:04:56;;;;;;;25.42;19.88;;;;;;;;;;4937306;29;20043;-80
2022/03/21 03:07:22;;;;;;;28.38;19.80;;;;;;;;;;4938777;29;20057;-80
2022/03/21 03:09:48;;;;;;;27.60;19.40;;;;;;;;;;4927227;29;20035;-80
2022/03/21 03:12:14;;;;;;;26.08;19.88;;;;;;;;;;4942046;28;20043;-80
2022/03/21 03:14:40;;;;;;;31.88;19.58;;;;;;;;;;4937188;29;20047;-80
2022/03/21 03:17:06;;;;;;;29.48;19.52;;;;;;;;;;4938816;29;20541;-81
2022/03/21 03:19:33;;;;;;;24.65;18.17;;;;;;;;;;4936644;29;20041;-81
2022/03/21 03:22:00;;;;;;;28.33;19.48;;;;;;;;;;4921562;29;20498;-81
2022/03/21 03:24:27;;;;;;;26.33;18.30;;;;;;;;;;4939083;29;20090;-80
2022/03/21 03:26:53;;;;;;;27.85;19.85;;;;;;;;;;4921287;29;20035;-81
2022/03/21 03:29:19;;;;;;;24.63;17.92;;;;;;;;;;4937001;29;20047;-81
2022/03/21 03:31:45;;;;;;;24.88;18.45;;;;;;;;;;4937139;29;20043;-80
2022/03/21 03:34:12;;;;;;;25.83;18.70;;;;;;;;;;4937258;29;20483;-81
2022/03/21 03:36:38;;;;;;;24.35;17.77;;;;;;;;;;4937092;29;20058;-81
2022/03/21 03:39:04;;;;;;;23.90;17.25;;;;;;;;;;4921937;29;20601;-81
2022/03/21 03:41:30;;;;;;;29.55;18.05;;;;;;;;;;4936307;29;20122;-81
2022/03/21 03:43:58;;;;;;;25.98;18.50;;;;;;;;;;4921574;29;20113;-81
2022/03/21 03:46:24;;;;;;;26.80;18.45;;;;;;;;;;4936885;29;20037;-80
2022/03/21 03:48:50;;;;;;;24.33;18.35;;;;;;;;;;4925669;28;20035;-81
2022/03/21 03:51:16;;;;;;;24.42;17.80;;;;;;;;;;4944581;29;20050;-81
2022/03/21 03:53:43;;;;;;;24.73;18.23;;;;;;;;;;4918879;29;20047;-80
2022/03/21 03:56:09;;;;;;;25.67;18.60;;;;;;;;;;4918998;29;20046;-81
2022/03/21 03:58:35;;;;;;;24.88;16.98;;;;;;;;;;4933552;29;20051;-81
2022/03/21 04:01:04;;;;;;;27.45;19.60;;;;;;;;;;4936652;29;20127;-81
2022/03/21 04:03:45;;;;;;;25.50;18.98;;;;;;;;;;4933059;28;20043;-81
2022/03/21 04:06:12;;;;;;;26.00;17.83;;;;;;;;;;4935154;29;20444;-81
2022/03/21 04:08:38;;;;;;;23.80;17.60;;;;;;;;;;4936328;28;20094;-81
2022/03/21 04:11:04;;;;;;;26.75;19.05;;;;;;;;;;4935832;29;20126;-81
2022/03/21 04:13:30;;;;;;;26.73;18.92;;;;;;;;;;4937032;29;20047;-81
2022/03/21 04:15:57;;;;;;;25.55;19.02;;;;;;;;;;4936432;29;20054;-81
2022/03/21 04:18:25;;;;;;;26.00;18.30;;;;;;;;;;4935687;29;20040;-81
2022/03/21 04:20:51;;;;;;;25.77;18.80;;;;;;;;;;4933800;29;20040;-81
2022/03/21 04:23:18;;;;;;;24.83;17.02;;;;;;;;;;4924680;29;20489;-81
2022/03/21 04:25:45;;;;;;;27.08;18.58;;;;;;;;;;4920464;29;20046;-81
2022/03/21 04:28:11;;;;;;;21.83;17.70;;;;;;;;;;4931039;29;20039;-81
2022/03/21 04:30:38;;;;;;;24.73;18.73;;;;;;;;;;4927432;29;20122;-81
2022/03/21 04:33:09;;;;;;;29.15;19.20;;;;;;;;;;4926020;29;20035;-81
2022/03/21 04:35:35;;;;;;;25.25;19.30;;;;;;;;;;4949981;28;20062;-81
2022/03/21 04:38:01;;;;;;;25.27;18.77;;;;;;;;;;4938674;29;20058;-81
2022/03/21 04:40:27;;;;;;;24.27;17.70;;;;;;;;;;4939882;29;20433;-81
2022/03/21 04:42:54;;;;;;;23.35;17.33;;;;;;;;;;4935637;29;20102;-81
2022/03/21 04:45:20;;;;;;;26.25;18.48;;;;;;;;;;4932722;29;20043;-81
2022/03/21 04:47:46;;;;;;;25.42;18.90;;;;;;;;;;4931159;29;20117;-81
2022/03/21 04:50:13;;;;;;;25.50;17.85;;;;;;;;;;4940320;29;20488;-81
2022/03/21 04:52:39;;;;;;;26.33;17.48;;;;;;;;;;4945636;29;20050;-81
2022/03/21 04:55:08;;;;;;;23.95;17.73;;;;;;;;;;4934085;29;20370;-81
2022/03/21 04:57:35;;;;;;;25.80;18.42;;;;;;;;;;4939899;29;20070;-81
2022/03/21 05:00:01;;;;;;;25.98;18.48;;;;;;;;;;4924331;29;20492;-81
2022/03/21 05:02:27;;;;;;;24.38;17.83;;;;;;;;;;4940572;29;20039;-81
2022/03/21 05:04:54;;;;;;;25.67;18.15;;;;;;;;;;4944627;29;20043;-81
2022/03/21 05:07:20;;;;;;;26.45;18.63;;;;;;;;;;4942871;29;20101;-81
2022/03/21 05:09:46;;;;;;;26.08;18.98;;;;;;;;;;4943689;28;20047;-81
2022/03/21 05:12:12;;;;;;;23.38;18.25;;;;;;;;;;4943428;29;20043;-81
2022/03/21 05:14:39;;;;;;;24.23;18.50;;;;;;;;;;4956300;29;20134;-81
2022/03/21 05:17:05;;;;;;;28.80;19.02;;;;;;;;;;4943507;29;20043;-81
2022/03/21 05:19:37;;;;;;;22.23;17.73;;;;;;;;;;4926215;29;20131;-81
2022/03/21 05:22:07;;;;;;;29.00;18.80;;;;;;;;;;4934218;29;20127;-81
2022/03/21 05:35:52;;;;;;;29.05;18.88;;;;;;;;;;4925668;29;20047;-81
2022/03/21 05:35:54;;;;;;;26.30;18.02;;;;;;;;;;4939422;28;20047;-81
2022/03/21 05:38:22;;;;;;;22.40;17.23;;;;;;;;;;4923332;29;20142;-81
2022/03/21 05:40:48;;;;;;;24.33;17.85;;;;;;;;;;4926725;29;20496;-81
2022/03/21 05:43:14;;;;;;;25.60;16.98;;;;;;;;;;4938692;29;20047;-81
2022/03/21 05:45:41;;;;;;;22.95;17.55;;;;;;;;;;4937629;29;20035;-81
2022/03/21 05:50:52;;;;;;;22.27;16.08;;;;;;;;;;4933757;29;20083;-81
2022/03/21 05:53:18;;;;;;;21.52;16.17;;;;;;;;;;4927143;29;20505;-81
2022/03/21 05:55:45;;;;;;;22.58;17.00;;;;;;;;;;4937691;29;20051;-81
2022/03/21 05:58:12;;;;;;;21.42;16.25;;;;;;;;;;4915534;29;20130;-81
2022/03/21 06:00:38;;;;;;;19.80;14.77;;;;;;;;;;4933327;29;20047;-81
2022/03/21 06:03:04;;;;;;;22.65;15.55;;;;;;;;;;4919630;29;20067;-81
2022/03/21 06:05:31;;;;;;;19.15;15.07;;;;;;;;;;4942303;29;20067;-81
2022/03/21 06:07:57;;;;;;;22.95;16.48;;;;;;;;;;4938638;29;20070;-81
2022/03/21 06:10:23;;;;;;;22.40;16.27;;;;;;;;;;4937571;29;20079;-81
2022/03/21 06:12:50;;;;;;;22.45;15.27;;;;;;;;;;4919146;29;20062;-81
2022/03/21 06:15:16;;;;;;;19.60;14.85;;;;;;;;;;4943310;29;20497;-81
2022/03/21 06:17:43;;;;;;;19.73;15.23;;;;;;;;;;4930819;29;20059;-81
2022/03/21 06:20:10;;;;;;;25.55;17.23;;;;;;;;;;4921923;29;20534;-81
2022/03/21 06:22:36;;;;;;;18.33;14.77;;;;;;;;;;4937118;29;20055;-81
2022/03/21 06:25:03;;;;;;;18.83;15.43;;;;;;;;;;4945869;29;20445;-82
2022/03/21 06:27:29;;;;;;;22.95;17.25;;;;;;;;;;4953282;29;20133;-82
2022/03/21 06:29:55;;;;;;;24.65;17.65;;;;;;;;;;4941407;29;20083;-81
2022/03/21 06:32:21;;;;;;;23.58;16.70;;;;;;;;;;4952773;29;20047;-82
2022/03/21 06:34:47;;;;;;;19.77;15.93;;;;;;;;;;4949548;29;20047;-81
2022/03/21 06:37:13;;;;;;;21.25;14.63;;;;;;;;;;4944450;29;20402;-81
2022/03/21 06:39:39;;;;;;;18.60;15.27;;;;;;;;;;4902585;29;20048;-81
2022/03/21 06:42:06;;;;;;;22.50;15.95;;;;;;;;;;4932358;29;20550;-81
2022/03/21 06:44:32;;;;;;;21.80;16.95;;;;;;;;;;4917390;29;20127;-81
2022/03/21 06:46:58;;;;;;;26.80;22.35;;;;;;;;;;4918598;29;20036;-81
2022/03/21 06:49:29;;;;;;;20.60;16.48;;;;;;;;;;4931950;29;20079;-82
2022/03/21 06:51:56;;;;;;;21.95;17.25;;;;;;;;;;4907430;29;20434;-81
2022/03/21 06:54:22;;;;;;;19.60;15.45;;;;;;;;;;4932315;29;20050;-81
2022/03/21 06:56:48;;;;;;;19.17;14.82;;;;;;;;;;4939587;28;20055;-81
2022/03/21 06:59:14;;;;;;;19.67;14.93;;;;;;;;;;4936995;29;20513;-81
2022/03/21 07:01:40;;;;;;;16.65;14.27;;;;;;;;;;4938030;29;20047;-81
2022/03/21 07:04:05;;;;;;;18.25;15.68;;;;;;;;;;4930037;29;20376;-81
2022/03/21 07:06:31;;;;;;;20.85;15.93;;;;;;;;;;4952976;29;20371;-81
2022/03/21 07:08:57;;;;;;;16.60;14.52;;;;;;;;;;4923683;29;20043;-81
2022/03/21 07:11:24;;;;;;;18.30;16.40;;;;;;;;;;4936769;29;20043;-80
2022/03/21 07:13:50;;;;;;;21.40;16.75;;;;;;;;;;4937868;29;20484;-80
2022/03/21 07:16:16;;;;;;;20.67;15.55;;;;;;;;;;4937000;29;20122;-80
2022/03/21 07:18:42;;;;;;;17.10;15.27;;;;;;;;;;4921148;29;20405;-80
2022/03/21 07:21:09;;;;;;;20.65;15.50;;;;;;;;;;4935592;29;20039;-81
2022/03/21 07:23:35;;;;;;;17.75;14.52;;;;;;;;;;4939436;29;20389;-80
2022/03/21 07:26:02;;;;;;;20.92;15.52;;;;;;;;;;4936832;29;20073;-81
2022/03/21 07:28:28;;;;;;;18.83;14.50;;;;;;;;;;4924786;29;20054;-81
2022/03/21 07:30:54;;;;;;;18.05;15.10;;;;;;;;;;4930071;29;20051;-80
2022/03/21 07:33:20;;;;;;;16.58;14.88;;;;;;;;;;4915279;29;20370;-80
2022/03/21 07:35:47;;;;;;;17.00;15.13;;;;;;;;;;4920563;29;20493;-80
2022/03/21 07:38:13;;;;;;;17.48;15.32;;;;;;;;;;4936170;29;20051;-80
2022/03/21 07:40:39;;;;;;;18.42;14.88;;;;;;;;;;4938298;29;20406;-80
2022/03/21 07:43:05;;;;;;;17.67;13.95;;;;;;;;;;4917241;29;20042;-80
2022/03/21 07:48:17;;;;;;;19.02;15.38;;;;;;;;;;4918325;29;20055;-79
2022/03/21 07:50:42;;;;;;;16.23;14.48;;;;;;;;;;4919611;29;20047;-80
2022/03/21 07:53:10;;;;;;;17.25;15.45;;;;;;;;;;4937319;29;20500;-79
2022/03/21 07:55:35;;;;;;;16.48;14.30;;;;;;;;;;4945659;29;20058;-80
2022/03/21 07:58:02;;;;;;;18.95;14.65;;;;;;;;;;4930721;29;20042;-78
2022/03/21 08:00:30;;;;;;;18.00;15.18;;;;;;;;;;4939056;29;20126;-80
2022/03/21 08:02:58;;;;;;;18.85;15.70;;;;;;;;;;4954359;28;20126;-80
2022/03/21 08:05:24;;;;;;;20.95;14.48;;;;;;;;;;4931696;29;20452;-79
2022/03/21 08:07:51;;;;;;;21.02;15.15;;;;;;;;;;4919693;29;20090;-81
2022/03/21 08:10:19;;;;;;;18.20;14.68;;;;;;;;;;4929831;29;20537;-80
2022/03/21 08:12:46;;;;;;;17.30;14.45;;;;;;;;;;4944273;29;20150;-79
2022/03/21 08:15:12;;;;;;;20.13;14.90;;;;;;;;;;4940103;29;20054;-80
2022/03/21 08:17:52;;;;;;;18.13;15.25;;;;;;;;;;4940744;29;20082;-80
2022/03/21 08:20:18;;;;;;;15.27;13.63;;;;;;;;;;4939245;29;20382;-79
2022/03/21 08:22:44;;;;;;;18.60;14.82;;;;;;;;;;4937486;29;20532;-79
2022/03/21 08:25:10;;;;;;;19.83;14.55;;;;;;;;;;4938827;29;20067;-80
2022/03/21 08:27:36;;;;;;;18.80;15.10;;;;;;;;;;4939168;29;20390;-79
2022/03/21 08:30:02;;;;;;;16.63;14.50;;;;;;;;;;4938799;29;20047;-79
2022/03/21 08:32:28;;;;;;;20.70;15.85;;;;;;;;;;4939482;29;20039;-79
2022/03/21 08:34:54;;;;;;;20.48;15.90;;;;;;;;;;4923045;29;20490;-80
2022/03/21 08:37:22;;;;;;;21.45;15.90;;;;;;;;;;4939200;29;20055;-80
2022/03/21 08:39:48;;;;;;;20.42;15.77;;;;;;;;;;4938364;29;20050;-80
2022/03/21 08:42:14;;;;;;;18.15;14.98;;;;;;;;;;4939353;29;20473;-80
2022/03/21 08:44:40;;;;;;;20.52;16.73;;;;;;;;;;4939836;29;20058;-80
2022/03/21 08:47:06;;;;;;;18.25;15.48;;;;;;;;;;4939394;29;20049;-80
2022/03/21 08:49:36;;;;;;;22.58;16.23;;;;;;;;;;4939409;29;20429;-81
2022/03/21 08:52:03;;;;;;;21.92;16.50;;;;;;;;;;4938065;29;20055;-81
2022/03/21 08:54:29;;;;;;;20.30;15.20;;;;;;;;;;4951213;29;20051;-80
2022/03/21 08:56:55;;;;;;;19.95;15.90;;;;;;;;;;4929845;29;20054;-80
2022/03/21 08:59:21;;;;;;;23.38;17.15;;;;;;;;;;4935441;29;20143;-80
2022/03/21 09:01:47;;;;;;;23.15;18.42;;;;;;;;;;4938282;29;20046;-80
2022/03/21 09:04:14;;;;;;;21.70;17.25;;;;;;;;;;4938243;29;20485;-80
2022/03/21 09:06:40;;;;;;;23.90;17.80;;;;;;;;;;4920075;28;20040;-80
2022/03/21 09:09:06;;;;;;;22.77;16.08;;;;;;;;;;4917901;29;20083;-80
2022/03/21 09:11:32;;;;;;;22.63;17.50;;;;;;;;;;4934951;29;20044;-80
2022/03/21 09:13:58;;;;;;;20.20;15.80;;;;;;;;;;4937600;29;20050;-80
2022/03/21 09:16:24;;;;;;;18.25;14.75;;;;;;;;;;4938459;29;20043;-80
2022/03/21 09:18:51;;;;;;;20.90;16.25;;;;;;;;;;4919133;29;20053;-80
2022/03/21 09:21:17;;;;;;;22.13;16.67;;;;;;;;;;4922409;29;20035;-80
2022/03/21 09:23:43;;;;;;;23.77;17.33;;;;;;;;;;4949036;29;20051;-80
2022/03/21 09:26:10;;;;;;;18.67;15.57;;;;;;;;;;4938156;29;20039;-80
2022/03/21 09:28:37;;;;;;;20.58;16.27;;;;;;;;;;4933000;29;20043;-80
2022/03/21 09:31:06;;;;;;;19.90;16.02;;;;;;;;;;4928570;29;20070;-80
2022/03/21 09:33:32;;;;;;;21.00;15.75;;;;;;;;;;4941270;29;20047;-80
2022/03/21 09:35:58;;;;;;;20.27;15.38;;;;;;;;;;4938110;29;20062;-80
2022/03/21 09:38:24;;;;;;;21.67;16.38;;;;;;;;;;4938949;29;20409;-80
2022/03/21 09:40:50;;;;;;;20.85;16.30;;;;;;;;;;4938284;29;20102;-81
2022/03/21 09:43:16;;;;;;;18.45;14.98;;;;;;;;;;4946645;29;20043;-81
2022/03/21 09:45:42;;;;;;;21.38;16.90;;;;;;;;;;4925212;29;20123;-81
2022/03/21 09:48:08;;;;;;;24.42;18.38;;;;;;;;;;4944783;29;20075;-80
2022/03/21 09:50:35;;;;;;;20.65;15.57;;;;;;;;;;4943088;29;20043;-80
2022/03/21 09:53:02;;;;;;;21.05;16.33;;;;;;;;;;4934496;29;20043;-80
2022/03/21 09:55:28;;;;;;;21.98;17.05;;;;;;;;;;4937188;29;20047;-80
2022/03/21 09:57:53;;;;;;;22.13;17.52;;;;;;;;;;4931425;29;20039;-80
2022/03/21 10:00:19;;;;;;;21.50;16.60;;;;;;;;;;4947210;29;20039;-80
2022/03/21 10:02:46;;;;;;;24.42;18.58;;;;;;;;;;4936324;29;20032;-80
2022/03/21 10:05:30;;;;;;;25.60;17.88;;;;;;;;;;4946092;29;20073;-80
2022/03/21 10:08:13;;;;;;;26.27;18.63;;;;;;;;;;4926750;29;20035;-80
2022/03/21 10:10:39;;;;;;;22.80;18.45;;;;;;;;;;4918593;29;20135;-79
2022/03/21 10:13:09;;;;;;;23.95;18.60;;;;;;;;;;4927163;29;20082;-79
2022/03/21 10:15:35;;;;;;;26.45;18.65;;;;;;;;;;4937057;29;20047;-79
2022/03/21 10:18:09;;;;;;;26.42;21.73;;;;;;;;;;4936650;29;20039;-79
2022/03/21 10:20:36;;;;;;;27.80;19.58;;;;;;;;;;4936205;29;20039;-79
2022/03/21 10:23:16;;;;;;;23.95;18.33;;;;;;;;;;4938539;29;20134;-79
2022/03/21 10:25:42;;;;;;;23.25;18.88;;;;;;;;;;4937494;29;20066;-79
2022/03/21 10:28:08;;;;;;;25.88;20.15;;;;;;;;;;4938563;29;20121;-79
2022/03/21 10:30:42;;;;;;;20.67;17.13;;;;;;;;;;4935908;29;20051;-78
2022/03/21 10:33:09;;;;;;;19.60;16.38;;;;;;;;;;4935493;29;20710;-78
2022/03/21 10:35:44;;;;;;;22.33;17.50;;;;;;;;;;4932318;29;20062;-78
2022/03/21 10:38:10;;;;;;;22.27;19.17;;;;;;;;;;4932261;29;20051;-78
2022/03/21 10:40:43;;;;;;;22.80;17.48;;;;;;;;;;4935711;29;20043;-78
2022/03/21 10:43:14;;;;;;;21.23;16.70;;;;;;;;;;4936125;29;20039;-78
2022/03/21 10:45:41;;;;;;;22.77;18.73;;;;;;;;;;4919155;29;20039;-78
2022/03/21 10:48:12;;;;;;;22.38;16.92;;;;;;;;;;4933944;29;20120;-78
2022/03/21 10:50:42;;;;;;;21.13;16.08;;;;;;;;;;4935869;29;20054;-78
2022/03/21 10:53:09;;;;;;;23.58;18.35;;;;;;;;;;4937574;29;20050;-78
2022/03/21 10:55:36;;;;;;;25.27;17.90;;;;;;;;;;4940208;29;20042;-78
2022/03/21 10:58:02;;;;;;;20.33;16.75;;;;;;;;;;4936562;29;20134;-78
2022/03/21 11:00:28;;;;;;;20.90;17.42;;;;;;;;;;4920743;29;20054;-78
2022/03/21 11:03:00;;;;;;;21.92;16.52;;;;;;;;;;4932493;29;20107;-78
2022/03/21 11:05:27;;;;;;;18.23;15.65;;;;;;;;;;4933906;29;20082;-79
2022/03/21 11:07:54;;;;;;;23.00;16.35;;;;;;;;;;4931774;29;20043;-79
2022/03/21 11:10:20;;;;;;;20.23;16.55;;;;;;;;;;4936834;29;20082;-80
2022/03/21 11:12:46;;;;;;;21.10;16.70;;;;;;;;;;4919893;29;20497;-78
2022/03/21 11:15:12;;;;;;;21.05;16.83;;;;;;;;;;4936428;29;20061;-79
2022/03/21 11:17:39;;;;;;;19.40;15.75;;;;;;;;;;4933812;28;20046;-79
2022/03/21 11:20:05;;;;;;;21.25;16.83;;;;;;;;;;4935827;29;20043;-79
2022/03/21 11:22:34;;;;;;;22.98;16.70;;;;;;;;;;4934809;29;20124;-79
2022/03/21 11:25:05;;;;;;;21.23;16.92;;;;;;;;;;4935177;28;20055;-79
2022/03/21 11:27:31;;;;;;;22.83;17.75;;;;;;;;;;4923201;29;20046;-78
2022/03/21 11:30:03;;;;;;;22.75;18.25;;;;;;;;;;4934231;29;20075;-79
2022/03/21 11:32:43;;;;;;;23.75;17.48;;;;;;;;;;4930037;29;20081;-79
2022/03/21 11:35:17;;;;;;;23.48;15.88;;;;;;;;;;4929348;29;20134;-79
2022/03/21 11:37:43;;;;;;;23.50;18.20;;;;;;;;;;4928872;29;20118;-78
2022/03/21 11:40:28;;;;;;;20.92;17.10;;;;;;;;;;4930356;29;20513;-78
2022/03/21 11:42:56;;;;;;;21.00;16.13;;;;;;;;;;4917270;29;20078;-78
2022/03/21 11:45:26;;;;;;;23.90;18.08;;;;;;;;;;4934408;29;20066;-78
2022/03/21 11:48:31;;;;;;;21.15;17.05;;;;;;;;;;4920088;29;20035;-77
2022/03/21 11:50:57;;;;;;;22.02;17.63;;;;;;;;;;4934690;29;20141;-77
2022/03/21 11:53:32;;;;;;;22.70;18.52;;;;;;;;;;4935889;29;20075;-78
2022/03/21 11:55:59;;;;;;;22.63;18.02;;;;;;;;;;4936260;29;20057;-78
2022/03/21 11:58:25;;;;;;;18.02;16.08;;;;;;;;;;4933732;29;20062;-78
2022/03/21 12:01:04;;;;;;;23.98;19.38;;;;;;;;;;4920062;29;20797;-78
2022/03/21 12:03:30;;;;;;;19.60;17.48;;;;;;;;;;4920148;29;20047;-78
2022/03/21 12:05:56;;;;;;;23.83;16.92;;;;;;;;;;4936136;29;20063;-78
2022/03/21 12:08:43;;;;;;;22.55;17.10;;;;;;;;;;4920235;29;20130;-78
2022/03/21 12:11:09;;;;;;;23.05;16.60;;;;;;;;;;4934834;29;20046;-77
2022/03/21 12:13:41;;;;;;;23.83;18.50;;;;;;;;;;4928987;29;20043;-78
2022/03/21 12:16:16;;;;;;;24.25;16.92;;;;;;;;;;4934875;29;20043;-78
2022/03/21 12:18:56;;;;;;;23.30;17.15;;;;;;;;;;4935386;29;20489;-78
2022/03/21 12:21:22;;;;;;;22.52;18.35;;;;;;;;;;4951371;29;20051;-77
2022/03/21 12:24:08;;;;;;;21.83;17.50;;;;;;;;;;4917701;29;20035;-78
2022/03/21 12:26:34;;;;;;;21.92;17.48;;;;;;;;;;4933229;29;20039;-78
2022/03/21 12:31:45;;;;;;;21.73;15.70;;;;;;;;;;4949924;29;20055;-77
2022/03/21 12:34:30;;;;;;;22.95;18.08;;;;;;;;;;4935113;29;20062;-77
2022/03/21 12:36:56;;;;;;;21.98;17.00;;;;;;;;;;4929667;29;20103;-77
2022/03/21 12:39:23;;;;;;;22.70;16.02;;;;;;;;;;4912474;29;20059;-77
2022/03/21 12:41:49;;;;;;;20.45;16.50;;;;;;;;;;4912885;29;20043;-77
2022/03/21 12:44:15;;;;;;;19.70;15.80;;;;;;;;;;4937164;29;20043;-76
2022/03/21 12:46:43;;;;;;;22.60;15.20;;;;;;;;;;4939181;29;20440;-77
2022/03/21 12:49:09;;;;;;;25.73;16.70;;;;;;;;;;4949183;29;20126;-78
2022/03/21 12:51:36;;;;;;;21.67;16.90;;;;;;;;;;4939079;29;20073;-78
2022/03/21 12:54:03;;;;;;;20.40;15.82;;;;;;;;;;4943571;29;20055;-78
2022/03/21 12:56:30;;;;;;;23.45;16.23;;;;;;;;;;4955204;29;20130;-77
2022/03/21 12:58:57;;;;;;;22.05;16.30;;;;;;;;;;4947906;29;20062;-77
2022/03/21 13:01:23;;;;;;;20.02;15.98;;;;;;;;;;4938161;29;20071;-78
2022/03/21 13:03:57;;;;;;;20.52;16.13;;;;;;;;;;4939354;29;20060;-77
2022/03/21 13:11:56;;;;;;;24.42;16.73;;;;;;;;;;4934769;29;20438;-77
2022/03/21 13:14:22;;;;;;;20.55;16.95;;;;;;;;;;4938215;29;20067;-77
2022/03/21 13:16:50;;;;;;;20.00;16.15;;;;;;;;;;4921455;29;20043;-77
2022/03/21 13:19:17;;;;;;;22.00;16.80;;;;;;;;;;4947984;29;20085;-77
2022/03/21 13:21:43;;;;;;;20.73;16.65;;;;;;;;;;4938281;29;20047;-78
2022/03/21 13:24:09;;;;;;;22.25;17.45;;;;;;;;;;4922668;29;20118;-77
2022/03/21 13:26:35;;;;;;;21.90;15.57;;;;;;;;;;4938290;29;20114;-77
2022/03/21 13:29:06;;;;;;;18.55;15.48;;;;;;;;;;4921971;29;20043;-77
2022/03/21 13:31:33;;;;;;;19.73;15.52;;;;;;;;;;4932433;29;20098;-76
2022/03/21 13:34:03;;;;;;;21.02;15.50;;;;;;;;;;4934312;29;20486;-77
2022/03/21 13:36:29;;;;;;;21.52;14.73;;;;;;;;;;4920289;29;20114;-76
2022/03/21 13:39:11;;;;;;;19.48;14.45;;;;;;;;;;4931324;29;20125;-77
2022/03/21 13:41:54;;;;;;;20.27;15.00;;;;;;;;;;4921600;29;20505;-77
2022/03/21 13:44:20;;;;;;;19.25;15.77;;;;;;;;;;4937742;29;20126;-78
2022/03/21 13:47:00;;;;;;;20.92;15.25;;;;;;;;;;4936690;29;20378;-78
2022/03/21 13:49:44;;;;;;;20.40;15.13;;;;;;;;;;4928362;29;20075;-77
2022/03/21 13:52:11;;;;;;;19.80;15.57;;;;;;;;;;4949674;23;20061;-79
2022/03/21 13:54:50;;;;;;;27.05;15.90;;;;;;;;;;4947168;28;20051;-79
2022/03/21 13:57:16;;;;;;;22.77;15.95;;;;;;;;;;4953463;29;20039;-79
2022/03/21 13:59:42;;;;;;;21.58;15.65;;;;;;;;;;4942847;28;20047;-79
2022/03/21 14:02:10;;;;;;;21.13;16.55;;;;;;;;;;4947945;29;21721;-79
2022/03/21 14:04:37;;;;;;;21.80;15.25;;;;;;;;;;4935339;29;20497;-78
2022/03/21 14:07:08;;;;;;;20.50;14.68;;;;;;;;;;4936709;29;20039;-78
2022/03/21 14:09:35;;;;;;;22.88;16.70;;;;;;;;;;4922955;29;20075;-78
2022/03/21 14:12:06;;;;;;;23.05;15.25;;;;;;;;;;4953487;29;20043;-78
2022/03/21 14:14:32;;;;;;;19.43;14.93;;;;;;;;;;4937482;29;20042;-79
2022/03/21 14:16:58;;;;;;;20.98;15.85;;;;;;;;;;4945306;29;20039;-78
2022/03/21 14:19:24;;;;;;;22.52;16.83;;;;;;;;;;4952548;29;20047;-78
2022/03/21 14:21:50;;;;;;;25.23;16.17;;;;;;;;;;4952096;29;20055;-78
2022/03/21 14:24:16;;;;;;;21.70;15.35;;;;;;;;;;4952725;29;20035;-78
2022/03/21 14:26:44;;;;;;;20.58;14.88;;;;;;;;;;4951547;28;20051;-78
2022/03/21 14:29:10;;;;;;;19.90;15.45;;;;;;;;;;4968732;28;20433;-78
2022/03/21 14:31:36;;;;;;;21.45;15.85;;;;;;;;;;4945020;29;20039;-78
2022/03/21 14:34:03;;;;;;;22.90;15.23;;;;;;;;;;4949684;29;20651;-78
2022/03/21 14:36:29;;;;;;;19.38;17.23;;;;;;;;;;4930763;29;20035;-78
2022/03/21 14:38:55;;;;;;;23.55;16.88;;;;;;;;;;4952239;29;20042;-78
2022/03/21 14:41:22;;;;;;;23.70;16.10;;;;;;;;;;4948184;29;20043;-79
2022/03/21 14:43:49;;;;;;;20.60;16.02;;;;;;;;;;4942026;29;20131;-77